Weather at Cervia Air Base

Public forecast

Using degrees Celsius for public forecast. Weather courtesy of forecast.io.

Current aviation weather report (METAR) for Cervia Air Base

Retrieved 2021/11/30 14:55 UTC (14 minutes ago):

LIPC 301455Z 24006KT CAVOK 09/M06 Q1015 RMK SCT SCT200 VIS MIN 9999 WIND THR11 24007KT WIND THR29 25007KT BLU

Aviation forecast (TAF) for Cervia Air Base

Forecast is more than 12 hours old.

Retrieved 2013/12/14 06:24 UTC (8 years ago):

TAF LIPC 140500Z 1406/1418 VRB03KT 5000 BR NSC TEMPO 1406/1409 0500 BCFG SCT001